createdAt,value
2022-10-12T00:00:59.009Z,3.33
2022-10-12T00:02:00.489Z,3.23
2022-10-12T00:03:01.883Z,3.03
2022-10-12T00:04:03.248Z,3.50
2022-10-12T00:05:04.709Z,3.23
2022-10-12T00:06:06.105Z,3.83
2022-10-12T00:07:07.435Z,3.40
2022-10-12T00:08:08.815Z,3.37
2022-10-12T00:09:10.223Z,3.33
2022-10-12T00:10:11.649Z,3.50
2022-10-12T00:11:15.332Z,3.57
2022-10-12T00:12:16.883Z,3.30
2022-10-12T00:13:19.266Z,3.50
2022-10-12T00:14:20.553Z,2.87
2022-10-12T00:15:21.916Z,2.90
2022-10-12T00:16:24.128Z,3.20
2022-10-12T00:17:25.429Z,2.90
2022-10-12T00:18:26.764Z,3.07
2022-10-12T00:19:28.075Z,2.97
2022-10-12T00:20:29.459Z,2.63
2022-10-12T00:21:30.783Z,2.80
2022-10-12T00:22:32.275Z,3.27
2022-10-12T00:23:34.361Z,3.10
2022-10-12T00:24:39.401Z,3.40
2022-10-12T00:25:44.098Z,3.57
2022-10-12T00:26:45.418Z,3.63
2022-10-12T00:27:47.094Z,3.40
2022-10-12T00:28:48.925Z,3.90
2022-10-12T00:29:50.304Z,3.30
2022-10-12T00:30:51.694Z,2.63
2022-10-12T00:31:53.035Z,3.50
2022-10-12T00:32:54.345Z,3.20
2022-10-12T00:33:55.789Z,2.97
2022-10-12T00:34:57.118Z,3.27
2022-10-12T00:35:58.526Z,3.37
2022-10-12T00:36:59.810Z,2.90
2022-10-12T00:38:01.107Z,3.20
2022-10-12T00:39:04.297Z,3.47
2022-10-12T00:40:05.956Z,3.53
2022-10-12T00:41:07.687Z,3.60
2022-10-12T00:42:11.359Z,3.23
2022-10-12T00:43:44.842Z,3.47
2022-10-12T00:44:47.511Z,3.30
2022-10-12T00:45:48.869Z,3.87
2022-10-12T00:46:50.208Z,2.97
2022-10-12T00:47:54.157Z,3.70
2022-10-12T00:49:05.565Z,4.13
2022-10-12T00:50:11.929Z,3.63
2022-10-12T00:51:14.154Z,4.17
2022-10-12T00:52:16.888Z,4.20
2022-10-12T00:53:20.769Z,4.07
2022-10-12T00:54:24.309Z,4.17
2022-10-12T00:55:26.601Z,4.43
2022-10-12T00:56:29.281Z,4.33
2022-10-12T00:57:31.039Z,4.23
2022-10-12T00:58:33.297Z,4.40
2022-10-12T00:59:39.985Z,5.17
2022-10-12T01:00:42.783Z,4.87
2022-10-12T01:01:44.076Z,4.30
2022-10-12T01:02:47.033Z,4.70
2022-10-12T01:03:48.773Z,5.10
2022-10-12T01:04:50.140Z,4.97
2022-10-12T01:05:51.612Z,4.60
2022-10-12T01:06:53.101Z,4.73
2022-10-12T01:07:54.406Z,4.67
2022-10-12T01:08:55.934Z,4.87
2022-10-12T01:09:57.278Z,4.33
2022-10-12T01:10:58.803Z,4.50
2022-10-12T01:12:00.193Z,4.67
2022-10-12T01:13:01.639Z,3.80
2022-10-12T01:14:03.002Z,3.73
2022-10-12T01:15:04.649Z,4.00
2022-10-12T01:16:24.591Z,3.77
2022-10-12T01:17:35.557Z,3.73
2022-10-12T01:18:37.080Z,3.60
2022-10-12T01:19:58.932Z,3.83
2022-10-12T01:21:09.565Z,3.67
2022-10-12T01:22:20.622Z,3.53
2022-10-12T01:23:27.717Z,4.13
2022-10-12T01:24:43.272Z,3.90
2022-10-12T01:26:03.587Z,3.40
2022-10-12T01:27:24.310Z,3.90
2022-10-12T01:28:25.662Z,3.57
2022-10-12T01:29:30.244Z,3.90
2022-10-12T01:30:36.436Z,4.17
2022-10-12T01:31:37.721Z,3.63
2022-10-12T01:32:44.926Z,3.60
2022-10-12T01:33:50.495Z,3.70
2022-10-12T01:35:15.540Z,3.50
2022-10-12T01:36:32.160Z,3.60
2022-10-12T01:37:55.822Z,4.17
2022-10-12T01:39:04.430Z,3.37
2022-10-12T01:40:08.892Z,3.70
2022-10-12T01:41:12.904Z,3.60
2022-10-12T01:42:16.712Z,3.60
2022-10-12T01:43:18.502Z,3.47
2022-10-12T01:44:22.924Z,3.50
2022-10-12T01:45:24.264Z,3.90
2022-10-12T01:46:25.523Z,3.90
2022-10-12T01:47:26.871Z,4.00
2022-10-12T01:48:28.167Z,3.47
2022-10-12T01:49:32.067Z,3.90
2022-10-12T01:50:50.810Z,4.50
2022-10-12T01:51:52.122Z,3.70
2022-10-12T01:52:53.517Z,3.83
2022-10-12T01:54:13.795Z,3.83
2022-10-12T01:55:30.465Z,3.73
2022-10-12T01:56:37.344Z,4.00
2022-10-12T01:57:41.752Z,3.77
2022-10-12T01:58:52.186Z,4.33
2022-10-12T02:00:02.898Z,4.10
2022-10-12T02:01:24.857Z,3.90
2022-10-12T02:02:44.960Z,4.47
2022-10-12T02:03:56.607Z,4.30
2022-10-12T02:04:57.894Z,3.87
2022-10-12T02:06:18.470Z,3.80
2022-10-12T02:07:24.969Z,4.50
2022-10-12T02:08:27.915Z,4.30
2022-10-12T02:09:33.684Z,3.97
2022-10-12T02:10:42.616Z,4.00
2022-10-12T02:11:45.422Z,4.20
2022-10-12T02:12:47.952Z,3.97
2022-10-12T02:13:55.244Z,3.80
2022-10-12T02:14:58.768Z,4.53
2022-10-12T02:16:02.031Z,3.90
2022-10-12T02:17:04.814Z,4.07
2022-10-12T02:18:06.976Z,4.07
2022-10-12T02:19:10.804Z,4.07
2022-10-12T02:20:14.249Z,3.10
2022-10-12T02:21:18.546Z,4.00
2022-10-12T02:22:20.437Z,3.17
2022-10-12T02:23:23.049Z,3.37
2022-10-12T02:24:24.493Z,3.13
2022-10-12T02:25:26.803Z,3.40
2022-10-12T02:26:28.778Z,3.70
2022-10-12T02:27:31.861Z,3.20
2022-10-12T02:28:34.572Z,3.10
2022-10-12T02:29:40.295Z,3.90
2022-10-12T02:30:51.543Z,3.53
2022-10-12T02:32:11.539Z,3.43
2022-10-12T02:33:23.655Z,3.20
2022-10-12T02:34:29.273Z,3.40
2022-10-12T02:35:35.167Z,2.93
2022-10-12T02:36:40.859Z,3.87
2022-10-12T02:37:46.828Z,3.97
2022-10-12T02:39:02.628Z,3.30
2022-10-12T02:40:11.620Z,3.40
2022-10-12T02:41:16.732Z,3.73
2022-10-12T02:42:20.546Z,3.63
2022-10-12T02:43:25.187Z,3.67
2022-10-12T02:44:29.807Z,3.87
2022-10-12T02:45:32.716Z,3.73
2022-10-12T02:46:34.855Z,4.07
2022-10-12T02:47:36.803Z,4.27
2022-10-12T02:48:39.553Z,3.50
2022-10-12T02:49:41.897Z,3.73
2022-10-12T02:50:43.726Z,4.00
2022-10-12T02:51:45.206Z,3.40
2022-10-12T02:52:46.789Z,3.70
2022-10-12T02:53:48.169Z,3.60
2022-10-12T02:54:49.496Z,3.30
2022-10-12T02:55:52.219Z,3.37
2022-10-12T02:56:53.554Z,3.47
2022-10-12T02:57:54.885Z,3.50
2022-10-12T02:58:56.515Z,3.00
2022-10-12T02:59:57.852Z,3.37
2022-10-12T03:00:59.240Z,3.50
2022-10-12T03:02:00.588Z,3.40
2022-10-12T03:03:01.929Z,3.70
2022-10-12T03:04:03.297Z,3.40
2022-10-12T03:05:04.805Z,3.10
2022-10-12T03:06:06.547Z,3.57
2022-10-12T03:07:07.846Z,3.70
2022-10-12T03:08:09.271Z,3.90
2022-10-12T03:09:10.617Z,4.10
2022-10-12T03:10:12.030Z,3.57
2022-10-12T03:11:14.209Z,3.33
2022-10-12T03:12:15.593Z,3.67
2022-10-12T03:13:17.066Z,3.27
2022-10-12T03:14:18.467Z,3.13
2022-10-12T03:15:19.820Z,3.50
2022-10-12T03:16:21.355Z,3.50
2022-10-12T03:17:22.664Z,3.50
2022-10-12T03:18:23.963Z,3.30
2022-10-12T03:19:25.292Z,3.57
2022-10-12T03:20:26.774Z,3.43
2022-10-12T03:21:28.239Z,3.77
2022-10-12T03:22:29.551Z,3.57
2022-10-12T03:23:31.240Z,3.43
2022-10-12T03:24:32.529Z,3.50
2022-10-12T03:25:33.914Z,3.40
2022-10-12T03:26:35.250Z,3.17
2022-10-12T03:27:36.941Z,3.80
2022-10-12T03:28:38.530Z,4.47
2022-10-12T03:29:39.939Z,3.53
2022-10-12T03:30:42.213Z,4.10
2022-10-12T03:31:43.834Z,3.60
2022-10-12T03:32:45.141Z,3.37
2022-10-12T03:33:46.419Z,3.53
2022-10-12T03:34:47.770Z,3.83
2022-10-12T03:35:49.092Z,3.40
2022-10-12T03:36:50.404Z,3.67
2022-10-12T03:37:51.728Z,3.73
2022-10-12T03:38:53.089Z,4.40
2022-10-12T03:39:54.399Z,3.60
2022-10-12T03:40:55.808Z,3.43
2022-10-12T03:41:57.135Z,3.87
2022-10-12T03:42:58.516Z,3.40
2022-10-12T03:44:00.016Z,3.97
2022-10-12T03:45:01.314Z,3.60
2022-10-12T03:46:02.624Z,3.47
2022-10-12T03:47:03.938Z,3.77
2022-10-12T03:48:06.768Z,3.60
2022-10-12T03:49:08.213Z,3.47
2022-10-12T03:50:09.661Z,4.13
2022-10-12T03:51:10.984Z,3.43
2022-10-12T03:52:12.320Z,3.77
2022-10-12T03:53:13.606Z,3.50
2022-10-12T03:54:15.006Z,3.60
2022-10-12T03:55:16.457Z,3.53
2022-10-12T03:56:17.782Z,3.93
2022-10-12T03:57:19.124Z,3.83
2022-10-12T03:58:20.473Z,3.20
2022-10-12T03:59:21.921Z,3.90
2022-10-12T04:00:23.726Z,3.73
2022-10-12T04:01:25.689Z,2.97
2022-10-12T04:02:27.116Z,3.90
2022-10-12T04:03:28.428Z,4.00
2022-10-12T04:04:29.759Z,3.80
2022-10-12T04:05:31.709Z,3.53
2022-10-12T04:06:33.064Z,3.97
2022-10-12T04:07:35.059Z,4.03
2022-10-12T04:08:36.517Z,3.97
2022-10-12T04:09:37.798Z,4.00
2022-10-12T04:10:39.113Z,3.90
2022-10-12T04:11:40.436Z,3.50
2022-10-12T04:12:41.804Z,3.90
2022-10-12T04:13:43.543Z,4.07
2022-10-12T04:14:44.857Z,4.20
2022-10-12T04:15:46.274Z,3.57
2022-10-12T04:16:47.676Z,3.40
2022-10-12T04:17:49.007Z,3.83
2022-10-12T04:18:50.308Z,3.63
2022-10-12T04:19:51.601Z,4.30
2022-10-12T04:20:53.131Z,3.63
2022-10-12T04:21:54.451Z,4.23
2022-10-12T04:22:55.752Z,3.60
2022-10-12T04:23:57.119Z,4.30
2022-10-12T04:24:58.679Z,3.63
2022-10-12T04:25:59.991Z,3.87
2022-10-12T04:27:01.350Z,3.80
2022-10-12T04:28:02.661Z,4.30
2022-10-12T04:29:04.178Z,4.27
2022-10-12T04:30:05.737Z,3.83
2022-10-12T04:31:07.110Z,3.40
2022-10-12T04:32:12.496Z,3.50
2022-10-12T04:33:14.242Z,4.00
2022-10-12T04:34:15.577Z,3.70
2022-10-12T04:35:16.868Z,3.67
2022-10-12T04:36:18.160Z,4.20
2022-10-12T04:37:19.516Z,3.50
2022-10-12T04:38:20.831Z,3.83
2022-10-12T04:39:22.202Z,3.57
2022-10-12T04:40:23.700Z,3.70
2022-10-12T04:41:24.960Z,3.93
2022-10-12T04:42:26.298Z,3.77
2022-10-12T04:43:27.575Z,3.83
2022-10-12T04:44:32.240Z,3.77
2022-10-12T04:45:33.872Z,3.57
2022-10-12T04:46:35.260Z,4.23
2022-10-12T04:47:36.856Z,3.90
2022-10-12T04:48:38.476Z,3.67
2022-10-12T04:49:39.785Z,4.00
2022-10-12T04:50:41.065Z,3.90
2022-10-12T04:51:42.458Z,3.77
2022-10-12T04:52:43.835Z,3.50
2022-10-12T04:53:45.213Z,3.70
2022-10-12T04:54:47.183Z,3.57
2022-10-12T04:55:48.475Z,3.80
2022-10-12T04:56:49.786Z,4.20
2022-10-12T04:57:51.157Z,3.57
2022-10-12T04:58:52.533Z,3.90
2022-10-12T04:59:53.834Z,3.97
2022-10-12T05:00:55.101Z,3.33
2022-10-12T05:01:56.494Z,3.70
2022-10-12T05:02:57.889Z,3.70
2022-10-12T05:04:00.298Z,3.80
2022-10-12T05:05:01.957Z,3.93
2022-10-12T05:06:03.399Z,3.50
2022-10-12T05:07:04.727Z,4.37
2022-10-12T05:08:06.478Z,3.93
2022-10-12T05:09:07.792Z,4.07
2022-10-12T05:10:10.162Z,3.70
2022-10-12T05:11:11.451Z,4.20
2022-10-12T05:12:12.852Z,3.63
2022-10-12T05:13:14.495Z,3.67
2022-10-12T05:14:15.784Z,4.20
2022-10-12T05:15:18.332Z,3.93
2022-10-12T05:16:19.634Z,4.13
2022-10-12T05:17:20.987Z,3.90
2022-10-12T05:18:22.404Z,4.13
2022-10-12T05:19:24.346Z,3.90
2022-10-12T05:20:25.757Z,4.17
2022-10-12T05:21:27.060Z,3.80
2022-10-12T05:22:28.359Z,3.83
2022-10-12T05:23:29.685Z,3.87
2022-10-12T05:24:31.890Z,4.50
2022-10-12T05:25:35.222Z,4.17
2022-10-12T05:26:36.599Z,4.83
2022-10-12T05:27:38.261Z,4.90
2022-10-12T05:28:41.307Z,4.60
2022-10-12T05:29:42.803Z,4.73
2022-10-12T05:30:44.169Z,6.50
2022-10-12T05:31:45.580Z,6.27
2022-10-12T05:32:47.798Z,5.43
2022-10-12T05:33:49.192Z,5.87
2022-10-12T05:34:50.629Z,5.53
2022-10-12T05:35:56.214Z,5.03
2022-10-12T05:36:58.339Z,4.70
2022-10-12T05:37:59.696Z,4.90
2022-10-12T05:39:01.065Z,4.30
2022-10-12T05:40:02.394Z,4.20
2022-10-12T05:41:03.798Z,4.10
2022-10-12T05:42:08.325Z,4.20
2022-10-12T05:43:10.707Z,4.20
2022-10-12T05:44:12.353Z,4.10
2022-10-12T05:45:13.665Z,4.83
2022-10-12T05:46:14.957Z,4.43
2022-10-12T05:47:16.255Z,4.83
2022-10-12T05:48:17.552Z,4.33
2022-10-12T05:49:18.861Z,3.90
2022-10-12T05:50:21.232Z,3.93
2022-10-12T05:51:27.914Z,4.03
2022-10-12T05:52:30.206Z,3.90
2022-10-12T05:53:31.610Z,4.27
2022-10-12T05:54:32.938Z,4.13
2022-10-12T05:55:34.274Z,4.30
2022-10-12T05:56:35.564Z,4.00
2022-10-12T05:57:37.747Z,4.33
2022-10-12T05:58:39.040Z,4.40
2022-10-12T05:59:40.378Z,4.40
2022-10-12T06:00:41.677Z,4.67
2022-10-12T06:01:42.996Z,14.10
2022-10-12T06:02:44.404Z,9.27
2022-10-12T06:03:45.773Z,7.60
2022-10-12T06:04:47.100Z,5.97
2022-10-12T06:05:48.404Z,4.77
2022-10-12T06:06:49.686Z,4.80
2022-10-12T06:07:50.999Z,5.03
2022-10-12T06:08:52.304Z,5.03
2022-10-12T06:09:53.805Z,5.03
2022-10-12T06:10:55.183Z,4.90
2022-10-12T06:11:56.525Z,4.90
2022-10-12T06:12:57.839Z,5.17
2022-10-12T06:13:59.138Z,5.73
2022-10-12T06:15:00.467Z,5.47
2022-10-12T06:16:01.830Z,5.60
2022-10-12T06:17:03.191Z,6.57
2022-10-12T06:18:04.617Z,7.40
2022-10-12T06:19:05.933Z,6.63
2022-10-12T06:20:07.435Z,10.13
2022-10-12T06:21:32.084Z,12.57
2022-10-12T06:22:30.114Z,7.20
2022-10-12T06:23:31.587Z,8.17
2022-10-12T06:24:32.863Z,8.67
2022-10-12T06:25:34.243Z,8.33
2022-10-12T06:26:35.554Z,7.17
2022-10-12T06:27:36.943Z,7.67
2022-10-12T06:28:38.345Z,7.83
2022-10-12T06:29:39.752Z,8.33
2022-10-12T06:30:41.081Z,7.47
2022-10-12T06:31:43.924Z,7.97
2022-10-12T06:32:46.937Z,8.13
2022-10-12T06:33:50.145Z,8.83
2022-10-12T06:34:51.925Z,8.20
2022-10-12T06:35:53.979Z,7.63
2022-10-12T06:36:59.485Z,7.67
2022-10-12T06:38:03.096Z,7.33
2022-10-12T06:39:04.438Z,7.23
2022-10-12T06:40:06.311Z,7.30
2022-10-12T06:41:07.706Z,7.67
2022-10-12T06:42:09.764Z,7.43
2022-10-12T06:43:22.598Z,7.17
2022-10-12T06:44:23.909Z,6.70
2022-10-12T06:45:25.246Z,7.40
2022-10-12T06:46:26.700Z,6.37
2022-10-12T06:47:28.061Z,6.40
2022-10-12T06:48:29.673Z,6.67
2022-10-12T06:49:31.038Z,6.73
2022-10-12T06:50:32.482Z,6.20
2022-10-12T06:51:33.823Z,6.00
2022-10-12T06:52:35.465Z,6.87
2022-10-12T06:53:37.441Z,8.10
2022-10-12T06:54:43.845Z,8.07
2022-10-12T06:55:45.377Z,7.50
2022-10-12T06:56:46.897Z,7.23
2022-10-12T06:57:48.368Z,7.20
2022-10-12T06:58:53.924Z,7.27
2022-10-12T06:59:59.935Z,7.20
2022-10-12T07:01:07.128Z,7.23
2022-10-12T07:02:16.766Z,6.90
2022-10-12T07:03:21.263Z,6.90
2022-10-12T07:04:22.676Z,6.20
2022-10-12T07:05:24.200Z,6.90
2022-10-12T07:06:25.759Z,6.53
2022-10-12T07:07:29.651Z,5.83
2022-10-12T07:08:31.022Z,5.60
2022-10-12T07:09:32.364Z,5.10
2022-10-12T07:10:33.721Z,5.40
2022-10-12T07:11:35.113Z,5.93
2022-10-12T07:12:37.348Z,5.40
2022-10-12T07:13:38.938Z,4.97
2022-10-12T07:14:40.337Z,4.97
2022-10-12T07:15:41.667Z,5.23
2022-10-12T07:16:43.045Z,5.93
2022-10-12T07:17:44.397Z,5.17
2022-10-12T07:18:45.768Z,5.13
2022-10-12T07:19:47.214Z,6.00
2022-10-12T07:20:51.002Z,6.23
2022-10-12T07:21:52.301Z,5.43
2022-10-12T07:22:53.658Z,5.33
2022-10-12T07:23:55.073Z,6.00
2022-10-12T07:24:56.501Z,5.53
2022-10-12T07:25:57.944Z,6.57
2022-10-12T07:26:59.254Z,5.17
2022-10-12T07:28:00.631Z,5.93
2022-10-12T07:29:02.274Z,5.70
2022-10-12T07:30:03.804Z,6.63
2022-10-12T07:31:06.308Z,6.70
2022-10-12T07:32:08.003Z,7.77
2022-10-12T07:33:09.348Z,7.23
2022-10-12T07:34:10.979Z,7.03
2022-10-12T07:35:12.388Z,6.67
2022-10-12T07:36:15.602Z,7.33
2022-10-12T07:37:20.729Z,6.77
2022-10-12T07:38:22.167Z,7.90
2022-10-12T07:39:24.467Z,7.10
2022-10-12T07:40:26.428Z,7.77
2022-10-12T07:41:27.725Z,7.83
2022-10-12T07:42:29.047Z,7.53
2022-10-12T07:43:30.897Z,7.37
2022-10-12T07:44:32.816Z,6.90
2022-10-12T07:45:34.170Z,7.30
2022-10-12T07:46:35.692Z,7.37
2022-10-12T07:47:37.253Z,6.73
2022-10-12T07:48:45.702Z,6.90
2022-10-12T07:49:48.690Z,6.93
2022-10-12T07:50:50.107Z,6.57
2022-10-12T07:51:51.412Z,6.90
2022-10-12T07:52:52.771Z,6.73
2022-10-12T07:53:54.114Z,6.30
2022-10-12T07:54:55.395Z,6.90
2022-10-12T07:56:04.042Z,6.50
2022-10-12T07:57:05.610Z,6.57
2022-10-12T07:58:07.009Z,6.23
2022-10-12T07:59:08.376Z,6.70
2022-10-12T08:00:09.990Z,7.00
2022-10-12T08:01:14.212Z,7.13
2022-10-12T08:02:15.653Z,6.70
2022-10-12T08:03:17.018Z,7.20
2022-10-12T08:04:18.354Z,6.20
2022-10-12T08:05:21.260Z,5.90
2022-10-12T08:06:23.957Z,6.40
2022-10-12T08:07:25.339Z,5.60
2022-10-12T08:08:26.688Z,6.77
2022-10-12T08:09:27.984Z,5.67
2022-10-12T08:10:29.287Z,6.40
2022-10-12T08:11:30.677Z,7.03
2022-10-12T08:12:31.966Z,6.10
2022-10-12T08:13:33.800Z,5.80
2022-10-12T08:14:35.130Z,6.37
2022-10-12T08:15:36.478Z,6.20
2022-10-12T08:16:37.781Z,6.37
2022-10-12T08:17:39.678Z,6.70
2022-10-12T08:18:41.561Z,5.97
2022-10-12T08:19:42.966Z,6.17
2022-10-12T08:20:44.362Z,6.17
2022-10-12T08:21:45.724Z,6.73
2022-10-12T08:22:47.097Z,6.70
2022-10-12T08:23:48.773Z,6.17
2022-10-12T08:24:50.162Z,6.30
2022-10-12T08:25:52.303Z,6.70
2022-10-12T08:26:56.835Z,6.63
2022-10-12T08:28:00.430Z,6.60
2022-10-12T08:29:02.165Z,6.50
2022-10-12T08:30:04.838Z,6.70
2022-10-12T08:31:16.272Z,5.63
2022-10-12T08:32:17.610Z,7.00
2022-10-12T08:33:19.077Z,6.30
2022-10-12T08:34:20.571Z,6.00
2022-10-12T08:35:22.012Z,5.63
2022-10-12T08:36:23.320Z,6.43
2022-10-12T08:37:24.655Z,6.57
2022-10-12T08:38:25.979Z,6.63
2022-10-12T08:39:27.601Z,7.00
2022-10-12T08:40:30.773Z,6.80
2022-10-12T08:41:32.032Z,5.80
2022-10-12T08:42:33.312Z,7.03
2022-10-12T08:43:34.585Z,6.67
2022-10-12T08:44:46.106Z,7.10
2022-10-12T08:45:54.587Z,7.33
2022-10-12T08:46:57.932Z,6.97
2022-10-12T08:48:02.020Z,7.50
2022-10-12T08:49:06.817Z,7.50
2022-10-12T08:50:14.180Z,7.50
2022-10-12T08:51:22.455Z,8.00
2022-10-12T08:52:30.346Z,8.60
2022-10-12T08:54:00.764Z,7.40
2022-10-12T08:55:06.968Z,8.53
2022-10-12T08:56:09.224Z,7.80
2022-10-12T08:57:16.617Z,7.10
2022-10-12T08:58:26.031Z,8.23
2022-10-12T08:59:28.159Z,7.70
2022-10-12T09:00:30.935Z,8.00
2022-10-12T09:01:36.978Z,8.70
2022-10-12T09:02:47.369Z,9.10
2022-10-12T09:04:07.657Z,7.63
2022-10-12T09:05:10.737Z,8.27
2022-10-12T09:06:17.813Z,8.43
2022-10-12T09:07:26.173Z,8.93
2022-10-12T09:08:32.814Z,8.80
2022-10-12T09:09:43.142Z,9.40
2022-10-12T09:11:02.256Z,8.57
2022-10-12T09:12:18.945Z,8.40
2022-10-12T09:13:26.276Z,8.20
2022-10-12T09:14:28.511Z,8.10
2022-10-12T09:15:32.279Z,8.83
2022-10-12T09:16:35.639Z,7.67
2022-10-12T09:17:40.995Z,8.20
2022-10-12T09:18:45.595Z,8.53
2022-10-12T09:19:47.091Z,8.63
2022-10-12T09:20:49.631Z,8.70
2022-10-12T09:21:53.380Z,8.53
2022-10-12T09:23:14.648Z,8.50
2022-10-12T09:24:20.493Z,8.50
2022-10-12T09:25:27.056Z,8.03
2022-10-12T09:26:36.034Z,8.93
2022-10-12T09:27:40.639Z,8.50
2022-10-12T09:28:44.373Z,8.07
2022-10-12T09:29:47.524Z,8.23
2022-10-12T09:30:56.767Z,8.77
2022-10-12T09:31:58.117Z,8.77
2022-10-12T09:33:05.524Z,8.93
2022-10-12T09:34:07.496Z,8.80
2022-10-12T09:35:10.752Z,8.60
2022-10-12T09:36:14.944Z,8.37
2022-10-12T09:37:20.784Z,8.43
2022-10-12T09:38:24.346Z,8.33
2022-10-12T09:39:30.720Z,8.57
2022-10-12T09:40:32.983Z,7.87
2022-10-12T09:41:35.658Z,8.43
2022-10-12T09:42:37.227Z,8.27
2022-10-12T09:43:39.331Z,8.33
2022-10-12T09:44:43.681Z,9.10
2022-10-12T09:45:45.207Z,8.43
2022-10-12T09:46:49.536Z,7.90
2022-10-12T09:48:08.924Z,7.93
2022-10-12T09:49:10.249Z,7.63
2022-10-12T09:50:11.562Z,8.40
2022-10-12T09:51:16.489Z,8.00
2022-10-12T09:52:20.474Z,8.43
2022-10-12T09:53:24.564Z,8.00
2022-10-12T09:54:27.208Z,8.33
2022-10-12T09:55:28.642Z,8.23
2022-10-12T09:56:36.898Z,8.50
2022-10-12T09:57:40.740Z,9.47
2022-10-12T09:58:49.407Z,8.27
2022-10-12T09:59:51.476Z,7.90
2022-10-12T10:01:11.210Z,8.57
2022-10-12T10:02:12.639Z,8.03
2022-10-12T10:03:25.747Z,7.93
2022-10-12T10:04:30.668Z,8.17
2022-10-12T10:05:36.138Z,8.17
2022-10-12T10:06:38.489Z,8.20
2022-10-12T10:07:39.856Z,8.30
2022-10-12T10:08:42.996Z,8.20
2022-10-12T10:09:44.982Z,8.83
2022-10-12T10:10:56.488Z,8.77
2022-10-12T10:12:04.024Z,9.60
2022-10-12T10:13:06.352Z,8.70
2022-10-12T10:14:14.376Z,8.70
2022-10-12T10:15:20.488Z,8.53
2022-10-12T10:16:23.312Z,9.07
2022-10-12T10:17:29.425Z,10.33
2022-10-12T10:18:34.611Z,10.20
2022-10-12T10:19:36.827Z,9.30
2022-10-12T10:20:43.466Z,8.57
2022-10-12T10:21:45.065Z,8.23
2022-10-12T10:22:49.364Z,8.60
2022-10-12T10:23:52.420Z,8.73
2022-10-12T10:24:59.776Z,8.20
2022-10-12T10:26:04.356Z,8.50
2022-10-12T10:27:06.351Z,8.73
2022-10-12T10:28:19.996Z,8.10
2022-10-12T10:29:21.417Z,8.43
2022-10-12T10:30:29.636Z,9.50
2022-10-12T10:31:35.644Z,8.40
2022-10-12T10:32:37.084Z,8.33
2022-10-12T10:33:38.708Z,8.70
2022-10-12T10:34:42.849Z,9.00
2022-10-12T10:36:01.806Z,8.87
2022-10-12T10:37:04.235Z,9.07
2022-10-12T10:38:07.356Z,9.33
2022-10-12T10:39:15.710Z,9.67
2022-10-12T10:40:20.556Z,8.73
2022-10-12T10:41:25.182Z,9.23
2022-10-12T10:42:31.841Z,8.13
2022-10-12T10:43:33.217Z,9.00
2022-10-12T10:44:35.960Z,8.57
2022-10-12T10:46:53.195Z,9.20
2022-10-12T10:48:01.328Z,9.53
2022-10-12T10:49:07.206Z,9.20
2022-10-12T10:50:21.868Z,8.93
2022-10-12T10:51:38.460Z,9.53
2022-10-12T10:52:40.405Z,8.90
2022-10-12T10:53:46.317Z,8.60
2022-10-12T10:54:49.616Z,8.30
2022-10-12T10:55:54.960Z,9.03
2022-10-12T10:56:58.876Z,8.57
2022-10-12T10:58:10.892Z,8.83
2022-10-12T10:59:18.853Z,8.77
2022-10-12T11:01:49.621Z,8.03
2022-10-12T11:02:51.143Z,8.27
2022-10-12T11:03:59.429Z,8.37
2022-10-12T11:05:05.702Z,8.73
2022-10-12T11:06:07.097Z,8.47
2022-10-12T11:07:38.434Z,8.63
2022-10-12T11:08:41.387Z,7.83
2022-10-12T11:09:44.289Z,7.93
2022-10-12T11:10:51.978Z,8.67
2022-10-12T11:11:58.127Z,8.77
2022-10-12T11:13:02.452Z,8.67
2022-10-12T11:14:08.023Z,9.50
2022-10-12T11:15:18.566Z,8.17
2022-10-12T11:16:32.176Z,8.87
2022-10-12T11:17:35.251Z,9.47
2022-10-12T11:18:38.467Z,9.37
2022-10-12T11:19:42.327Z,9.33
2022-10-12T11:20:46.891Z,9.33
2022-10-12T11:21:56.639Z,9.53
2022-10-12T11:23:09.404Z,9.27
2022-10-12T11:24:29.643Z,9.30
2022-10-12T11:25:34.236Z,9.77
2022-10-12T11:26:37.835Z,9.27
2022-10-12T11:27:40.344Z,8.60
2022-10-12T11:28:41.927Z,10.83
2022-10-12T11:29:43.528Z,9.93
2022-10-12T11:30:46.922Z,10.33
2022-10-12T11:31:51.413Z,9.60
2022-10-12T11:33:11.891Z,10.67
2022-10-12T11:34:16.731Z,10.00
2022-10-12T11:35:29.971Z,9.77
2022-10-12T11:36:33.492Z,9.07
2022-10-12T11:37:41.941Z,9.17
2022-10-12T11:38:46.853Z,9.27
2022-10-12T11:39:51.185Z,9.77
2022-10-12T11:41:09.681Z,10.47
2022-10-12T11:42:27.449Z,9.40
2022-10-12T11:43:30.701Z,9.67
2022-10-12T11:44:42.100Z,10.27
2022-10-12T11:45:47.124Z,9.47
2022-10-12T11:46:57.237Z,8.97
2022-10-12T11:48:01.280Z,9.40
2022-10-12T11:49:06.064Z,9.93
2022-10-12T11:50:17.857Z,10.10
2022-10-12T11:51:19.181Z,9.47
2022-10-12T11:52:23.860Z,10.70
2022-10-12T11:53:33.730Z,9.83
2022-10-12T11:54:41.169Z,8.87
2022-10-12T11:55:59.439Z,9.37
2022-10-12T11:57:04.885Z,9.77
2022-10-12T11:58:56.046Z,10.33
2022-10-12T12:00:12.961Z,9.80
2022-10-12T12:01:34.504Z,11.07
2022-10-12T12:02:41.193Z,10.63
2022-10-12T12:03:45.234Z,11.53
2022-10-12T12:04:47.597Z,10.70
2022-10-12T12:05:49.231Z,11.07
2022-10-12T12:07:00.915Z,10.60
2022-10-12T12:08:02.300Z,10.20
2022-10-12T12:09:03.550Z,10.30
2022-10-12T12:10:23.447Z,10.23
2022-10-12T12:11:25.862Z,10.97
2022-10-12T12:12:28.344Z,10.87
2022-10-12T12:13:30.201Z,9.47
2022-10-12T12:14:31.526Z,9.50
2022-10-12T12:15:32.843Z,9.17
2022-10-12T12:16:41.947Z,11.00
2022-10-12T12:18:03.229Z,10.83
2022-10-12T12:19:23.301Z,10.03
2022-10-12T12:20:46.731Z,9.30
2022-10-12T12:22:06.952Z,10.30
2022-10-12T12:23:19.376Z,10.37
2022-10-12T12:24:22.698Z,10.03
2022-10-12T12:25:31.435Z,9.93
2022-10-12T12:26:33.188Z,10.87
2022-10-12T12:27:37.401Z,9.93
2022-10-12T12:28:46.912Z,9.70
2022-10-12T12:29:52.619Z,9.20
2022-10-12T12:30:59.060Z,9.80
2022-10-12T12:32:00.497Z,9.90
2022-10-12T12:33:20.181Z,9.80
2022-10-12T12:34:22.377Z,10.97
2022-10-12T12:35:23.782Z,11.30
2022-10-12T12:36:29.198Z,10.83
2022-10-12T12:37:32.608Z,11.03
2022-10-12T12:38:35.605Z,10.13
2022-10-12T12:39:44.748Z,10.53
2022-10-12T12:41:05.250Z,10.60
2022-10-12T12:42:08.157Z,10.10
2022-10-12T12:43:35.650Z,9.77
2022-10-12T12:44:36.981Z,10.53
2022-10-12T12:45:39.898Z,10.33
2022-10-12T12:46:56.546Z,9.47
2022-10-12T12:47:58.121Z,9.60
2022-10-12T12:48:59.992Z,9.30
2022-10-12T12:50:02.069Z,8.87
2022-10-12T12:51:03.761Z,9.50
2022-10-12T12:52:10.131Z,9.33
2022-10-12T12:53:16.838Z,9.47
2022-10-12T12:54:20.658Z,9.03
2022-10-12T12:55:40.462Z,8.80
2022-10-12T12:57:00.564Z,9.27
2022-10-12T12:58:20.887Z,9.03
2022-10-12T12:59:42.664Z,9.47
2022-10-12T13:01:02.797Z,9.17
2022-10-12T13:02:23.198Z,8.73
2022-10-12T13:03:30.444Z,11.20
2022-10-12T13:04:44.561Z,10.70
2022-10-12T13:05:52.120Z,8.93
2022-10-12T13:07:08.795Z,9.80
2022-10-12T13:08:10.051Z,9.23
2022-10-12T13:09:29.454Z,9.27
2022-10-12T13:10:38.251Z,7.93
2022-10-12T13:11:54.876Z,9.67
2022-10-12T13:13:14.928Z,9.30
2022-10-12T13:14:19.304Z,9.33
2022-10-12T13:15:26.388Z,8.10
2022-10-12T13:17:23.442Z,9.23
2022-10-12T13:17:51.833Z,9.03
2022-10-12T13:18:57.088Z,9.17
2022-10-12T13:20:00.026Z,9.03
2022-10-12T13:21:04.258Z,8.33
2022-10-12T13:22:10.201Z,7.93
2022-10-12T13:23:14.547Z,8.03
2022-10-12T13:24:24.184Z,8.73
2022-10-12T13:25:28.578Z,8.80
2022-10-12T13:26:32.299Z,8.57
2022-10-12T13:27:42.315Z,8.33
2022-10-12T13:28:48.731Z,9.00
2022-10-12T13:29:56.664Z,9.03
2022-10-12T13:31:01.000Z,9.20
2022-10-12T13:32:04.827Z,9.70
2022-10-12T13:33:09.965Z,9.10
2022-10-12T13:34:20.178Z,8.73
2022-10-12T13:35:30.745Z,9.43
2022-10-12T13:36:34.276Z,8.57
2022-10-12T13:37:35.724Z,8.53
2022-10-12T13:38:40.190Z,8.90
2022-10-12T13:39:44.606Z,8.43
2022-10-12T13:41:04.437Z,7.97
2022-10-12T13:42:06.453Z,7.97
2022-10-12T13:43:22.970Z,8.83
2022-10-12T13:44:34.716Z,8.83
2022-10-12T13:45:43.715Z,8.87
2022-10-12T13:46:46.570Z,8.37
2022-10-12T13:47:47.883Z,8.30
2022-10-12T13:49:04.697Z,8.00
2022-10-12T13:50:15.853Z,8.43
2022-10-12T13:51:22.097Z,8.27
2022-10-12T13:52:32.419Z,8.87
2022-10-12T13:53:38.177Z,8.57
2022-10-12T13:54:40.676Z,8.63
2022-10-12T13:55:42.196Z,8.33
2022-10-12T13:56:44.139Z,9.07
2022-10-12T13:57:50.096Z,8.50
2022-10-12T13:58:53.619Z,8.00
2022-10-12T14:00:02.774Z,8.50
2022-10-12T14:01:07.175Z,8.07
2022-10-12T14:02:19.087Z,8.63
2022-10-12T14:03:24.161Z,9.00
2022-10-12T14:04:27.969Z,8.67
2022-10-12T14:05:33.472Z,9.10
2022-10-12T14:06:36.887Z,8.50
2022-10-12T14:07:39.492Z,8.37
2022-10-12T14:08:40.870Z,8.67
2022-10-12T14:09:45.599Z,8.27
2022-10-12T14:10:49.370Z,7.87
2022-10-12T14:11:51.367Z,8.50
2022-10-12T14:12:53.593Z,9.17
2022-10-12T14:13:55.632Z,8.93
2022-10-12T14:14:57.261Z,8.03
2022-10-12T14:16:00.005Z,7.77
2022-10-12T14:17:01.896Z,8.13
2022-10-12T14:18:03.572Z,8.03
2022-10-12T14:19:17.785Z,8.13
2022-10-12T14:20:34.636Z,8.63
2022-10-12T14:21:36.970Z,8.20